createdAt,value
2018-05-31T00:01:14.868Z,75.10
2018-05-31T00:03:42.426Z,75.10
2018-05-31T00:06:09.966Z,74.60
2018-05-31T00:08:37.589Z,74.20
2018-05-31T00:11:05.175Z,73.30
2018-05-31T00:13:32.760Z,74.20
2018-05-31T00:16:00.310Z,74.60
2018-05-31T00:18:27.865Z,75.10
2018-05-31T00:20:55.424Z,74.20
2018-05-31T00:23:22.985Z,74.70
2018-05-31T00:25:50.537Z,74.50
2018-05-31T00:28:18.093Z,74.40
2018-05-31T00:30:46.410Z,75.40
2018-05-31T00:33:13.982Z,75.40
2018-05-31T00:35:41.541Z,75.40
2018-05-31T00:38:09.082Z,75.60
2018-05-31T00:40:37.474Z,76.80
2018-05-31T00:43:05.040Z,76.80
2018-05-31T00:45:32.623Z,76.00
2018-05-31T00:48:00.213Z,76.90
2018-05-31T00:50:27.768Z,76.20
2018-05-31T00:52:55.338Z,77.00
2018-05-31T00:55:34.925Z,77.40
2018-05-31T00:58:03.271Z,77.70
2018-05-31T01:00:30.834Z,77.70
2018-05-31T01:02:58.394Z,78.20
2018-05-31T01:05:25.978Z,78.50
2018-05-31T01:07:54.337Z,79.10
2018-05-31T01:10:21.905Z,79.10
2018-05-31T01:12:49.465Z,79.00
2018-05-31T01:15:17.050Z,79.20
2018-05-31T01:17:45.405Z,79.70
2018-05-31T01:20:13.007Z,79.70
2018-05-31T01:22:41.346Z,79.60
2018-05-31T01:25:08.903Z,79.60
2018-05-31T01:27:36.485Z,79.50
2018-05-31T01:30:04.033Z,79.10
2018-05-31T01:32:31.578Z,79.10
2018-05-31T01:34:59.155Z,78.90
2018-05-31T01:37:26.739Z,78.90
2018-05-31T01:39:54.331Z,79.20
2018-05-31T01:42:21.885Z,79.10
2018-05-31T01:44:49.434Z,79.20
2018-05-31T01:47:16.997Z,79.20
2018-05-31T01:49:44.555Z,79.00
2018-05-31T01:52:12.143Z,78.50
2018-05-31T01:54:39.711Z,78.50
2018-05-31T01:57:07.299Z,78.30
2018-05-31T01:59:34.887Z,78.30
2018-05-31T02:02:02.467Z,80.10
2018-05-31T02:04:30.044Z,80.20
2018-05-31T02:06:57.614Z,80.00
2018-05-31T02:09:25.242Z,80.70
2018-05-31T02:11:53.534Z,81.80
2018-05-31T02:14:21.106Z,81.80
2018-05-31T02:16:48.663Z,81.80
2018-05-31T02:19:16.218Z,81.80
2018-05-31T02:21:43.767Z,81.90
2018-05-31T02:24:12.087Z,82.70
2018-05-31T02:26:39.647Z,82.70
2018-05-31T02:29:07.222Z,82.90
2018-05-31T02:31:34.784Z,83.50
2018-05-31T02:34:02.358Z,83.90
2018-05-31T02:36:29.911Z,84.40
2018-05-31T02:38:57.486Z,84.80
2018-05-31T02:41:25.038Z,85.60
2018-05-31T02:43:52.606Z,85.70
2018-05-31T02:46:20.173Z,85.60
2018-05-31T02:48:47.794Z,85.10
2018-05-31T02:51:15.369Z,85.20
2018-05-31T02:53:42.942Z,85.30
2018-05-31T02:56:10.516Z,85.50
2018-05-31T02:58:38.106Z,85.70
2018-05-31T03:01:05.663Z,85.30
2018-05-31T03:03:33.299Z,85.70
2018-05-31T03:06:00.883Z,85.90
2018-05-31T03:08:28.443Z,85.70
2018-05-31T03:10:56.026Z,86.00
2018-05-31T03:13:23.574Z,86.20
2018-05-31T03:15:51.117Z,85.90
2018-05-31T03:18:18.682Z,86.10
2018-05-31T03:20:46.253Z,86.10
2018-05-31T03:23:13.818Z,86.20
2018-05-31T03:25:41.395Z,86.30
2018-05-31T03:28:08.965Z,86.20
2018-05-31T03:30:36.542Z,86.40
2018-05-31T03:33:04.171Z,86.40
2018-05-31T03:35:31.751Z,86.40
2018-05-31T03:37:59.345Z,86.50
2018-05-31T03:40:26.914Z,86.50
2018-05-31T03:42:54.590Z,86.50
2018-05-31T03:45:22.943Z,87.00
2018-05-31T03:47:50.502Z,87.00
2018-05-31T03:50:18.055Z,86.80
2018-05-31T03:52:45.610Z,87.30
2018-05-31T03:55:13.162Z,87.40
2018-05-31T03:57:40.735Z,87.40
2018-05-31T04:00:09.158Z,87.50
2018-05-31T04:02:36.716Z,87.30
2018-05-31T04:05:04.287Z,87.50
2018-05-31T04:07:31.875Z,86.90
2018-05-31T04:10:00.804Z,87.40
2018-05-31T04:12:28.379Z,87.50
2018-05-31T04:14:55.938Z,87.20
2018-05-31T04:17:23.503Z,87.30
2018-05-31T04:19:51.096Z,87.30
2018-05-31T04:22:18.671Z,87.30
2018-05-31T04:24:46.254Z,87.40
2018-05-31T04:27:14.578Z,87.60
2018-05-31T04:29:42.143Z,87.60
2018-05-31T04:32:09.690Z,86.80
2018-05-31T04:34:37.291Z,86.30
2018-05-31T04:37:04.879Z,85.90
2018-05-31T04:39:32.450Z,85.30
2018-05-31T04:42:00.011Z,85.60
2018-05-31T04:44:27.569Z,85.10
2018-05-31T04:46:55.158Z,84.30
2018-05-31T04:49:23.527Z,84.50
2018-05-31T04:51:51.103Z,84.50
2018-05-31T04:54:19.430Z,82.90
2018-05-31T04:56:47.023Z,83.00
2018-05-31T04:59:14.600Z,82.50
2018-05-31T05:01:42.774Z,82.10
2018-05-31T05:04:10.338Z,82.30
2018-05-31T05:06:37.923Z,82.00
2018-05-31T05:09:06.247Z,81.70
2018-05-31T05:11:33.813Z,81.70
2018-05-31T05:14:01.406Z,81.30
2018-05-31T05:16:28.953Z,81.40
2018-05-31T05:18:56.531Z,80.60
2018-05-31T05:21:24.099Z,80.40
2018-05-31T05:23:51.653Z,80.40
2018-05-31T05:26:19.235Z,79.90
2018-05-31T05:28:46.795Z,78.90
2018-05-31T05:31:14.373Z,78.60
2018-05-31T05:33:41.963Z,78.70
2018-05-31T05:36:09.549Z,77.10
2018-05-31T05:38:37.126Z,77.50
2018-05-31T05:41:04.703Z,77.20
2018-05-31T05:43:32.295Z,75.40
2018-05-31T05:45:59.833Z,74.80
2018-05-31T05:48:27.388Z,71.10
2018-05-31T05:50:54.973Z,70.70
2018-05-31T05:53:22.529Z,69.80
2018-05-31T05:55:50.066Z,66.30
2018-05-31T05:58:17.647Z,64.80
2018-05-31T06:00:45.219Z,63.40
2018-05-31T06:03:12.815Z,62.80
2018-05-31T06:05:40.390Z,61.70
2018-05-31T06:08:08.702Z,60.80
2018-05-31T06:10:36.261Z,60.70
2018-05-31T06:13:03.805Z,59.00
2018-05-31T06:15:32.155Z,58.90
2018-05-31T06:17:59.721Z,58.90
2018-05-31T06:20:27.299Z,58.80
2018-05-31T06:22:54.882Z,59.10
2018-05-31T06:25:22.457Z,59.00
2018-05-31T06:27:50.039Z,59.60
2018-05-31T06:30:17.602Z,58.90
2018-05-31T06:32:45.171Z,58.60
2018-05-31T06:35:12.726Z,58.80
2018-05-31T06:37:40.288Z,56.70
2018-05-31T06:40:07.872Z,56.40
2018-05-31T06:42:35.423Z,55.30
2018-05-31T06:45:02.977Z,56.40
2018-05-31T06:47:30.562Z,56.10
2018-05-31T06:49:58.138Z,55.20
2018-05-31T06:52:25.706Z,55.60
2018-05-31T06:54:53.275Z,56.50
2018-05-31T06:57:20.819Z,53.40
2018-05-31T06:59:48.382Z,54.10
2018-05-31T07:02:15.952Z,54.10
2018-05-31T07:04:43.511Z,52.30
2018-05-31T07:07:11.059Z,53.70
2018-05-31T07:09:38.651Z,51.90
2018-05-31T07:12:06.249Z,50.70
2018-05-31T07:14:33.795Z,50.90
2018-05-31T07:17:01.387Z,50.70
2018-05-31T07:19:28.954Z,52.30
2018-05-31T07:21:57.299Z,51.10
2018-05-31T07:24:24.850Z,51.10
2018-05-31T07:26:52.411Z,49.60
2018-05-31T07:29:19.955Z,50.00
2018-05-31T07:31:47.498Z,50.10
2018-05-31T07:34:15.826Z,50.40
2018-05-31T07:36:43.380Z,50.40
2018-05-31T07:39:10.942Z,51.50
2018-05-31T07:41:38.544Z,50.90
2018-05-31T07:44:06.080Z,50.30
2018-05-31T07:46:33.618Z,49.70
2018-05-31T07:49:01.928Z,49.20
2018-05-31T07:51:29.466Z,49.30
2018-05-31T07:53:57.062Z,48.60
2018-05-31T07:56:24.617Z,46.10
2018-05-31T07:58:52.187Z,46.70
2018-05-31T08:01:19.727Z,47.60
2018-05-31T08:03:47.266Z,48.10
2018-05-31T08:06:15.603Z,46.50
2018-05-31T08:08:43.165Z,46.50
2018-05-31T08:11:10.745Z,46.50
2018-05-31T08:13:38.291Z,47.60
2018-05-31T08:16:05.840Z,45.80
2018-05-31T08:18:33.373Z,45.80
2018-05-31T08:21:01.703Z,45.30
2018-05-31T08:23:29.274Z,45.40
2018-05-31T08:25:56.828Z,45.90
2018-05-31T08:28:24.388Z,46.00
2018-05-31T08:30:51.941Z,45.70
2018-05-31T08:33:19.503Z,46.80
2018-05-31T08:35:47.076Z,46.00
2018-05-31T08:38:14.628Z,44.60
2018-05-31T08:40:42.162Z,45.00
2018-05-31T08:43:10.467Z,45.30
2018-05-31T08:45:37.997Z,45.30
2018-05-31T08:48:05.535Z,44.60
2018-05-31T08:50:33.070Z,44.30
2018-05-31T08:53:00.611Z,45.30
2018-05-31T08:55:28.168Z,44.20
2018-05-31T08:57:55.726Z,44.20
2018-05-31T09:00:24.033Z,44.30
2018-05-31T09:02:51.588Z,44.40
2018-05-31T09:05:19.121Z,44.20
2018-05-31T09:07:46.666Z,44.60
2018-05-31T09:10:14.230Z,43.60
2018-05-31T09:12:41.782Z,43.20
2018-05-31T09:15:09.346Z,43.00
2018-05-31T09:17:36.896Z,42.90
2018-05-31T09:20:04.471Z,43.60
2018-05-31T09:22:32.033Z,43.40
2018-05-31T09:24:59.595Z,45.00
2018-05-31T09:27:27.163Z,43.10
2018-05-31T09:29:54.701Z,43.10
2018-05-31T09:32:22.237Z,42.40
2018-05-31T09:34:50.548Z,42.40
2018-05-31T09:37:18.119Z,42.40
2018-05-31T09:39:45.660Z,43.30
2018-05-31T09:42:13.203Z,41.30
2018-05-31T09:44:40.729Z,40.90
2018-05-31T09:47:08.271Z,40.60
2018-05-31T09:49:36.428Z,40.20
2018-05-31T09:52:04.756Z,41.80
2018-05-31T09:54:32.324Z,41.80
2018-05-31T09:56:59.859Z,41.10
2018-05-31T09:59:27.394Z,42.10
2018-05-31T10:01:55.695Z,40.20
2018-05-31T10:04:23.254Z,40.20
2018-05-31T10:06:50.820Z,39.70
2018-05-31T10:09:18.447Z,39.00
2018-05-31T10:11:45.992Z,40.60
2018-05-31T10:14:13.552Z,40.80
2018-05-31T10:16:41.135Z,39.90
2018-05-31T10:19:08.665Z,40.90
2018-05-31T10:21:36.217Z,39.50
2018-05-31T10:24:03.791Z,38.50
2018-05-31T10:26:31.382Z,38.10
2018-05-31T10:28:59.671Z,38.80
2018-05-31T10:31:27.228Z,39.00
2018-05-31T10:33:54.843Z,38.30
2018-05-31T10:36:22.407Z,37.00
2018-05-31T10:38:49.976Z,39.10
2018-05-31T10:41:17.520Z,38.60
2018-05-31T10:43:45.866Z,37.90
2018-05-31T10:46:13.401Z,37.80
2018-05-31T10:48:40.951Z,38.10
2018-05-31T10:51:08.503Z,37.10
2018-05-31T10:53:36.822Z,36.10
2018-05-31T10:56:04.431Z,36.10
2018-05-31T10:58:31.965Z,36.90
2018-05-31T11:00:59.510Z,37.20
2018-05-31T11:03:27.099Z,37.10
2018-05-31T11:05:54.643Z,36.80
2018-05-31T11:08:22.187Z,36.00
2018-05-31T11:10:49.781Z,35.50
2018-05-31T11:13:17.354Z,35.30
2018-05-31T11:15:44.919Z,35.70
2018-05-31T11:18:12.453Z,35.70
2018-05-31T11:20:40.011Z,35.10
2018-05-31T11:23:07.598Z,35.70
2018-05-31T11:25:35.184Z,36.60
2018-05-31T11:28:02.751Z,37.00
2018-05-31T11:30:30.285Z,35.90
2018-05-31T11:32:57.832Z,34.30
2018-05-31T11:35:25.380Z,34.60
2018-05-31T11:37:53.703Z,35.70
2018-05-31T11:40:21.275Z,35.70
2018-05-31T11:42:48.882Z,34.20
2018-05-31T11:45:17.186Z,35.00
2018-05-31T11:47:44.718Z,35.10
2018-05-31T11:50:12.250Z,33.40
2018-05-31T11:52:39.811Z,33.90
2018-05-31T11:55:07.365Z,35.30
2018-05-31T11:57:34.931Z,36.60
2018-05-31T12:00:02.465Z,33.90
2018-05-31T12:02:29.997Z,33.80
2018-05-31T12:04:57.539Z,34.20
2018-05-31T12:07:25.078Z,34.10
2018-05-31T12:09:52.629Z,33.30
2018-05-31T12:12:20.190Z,34.50
2018-05-31T12:14:47.759Z,34.30
2018-05-31T12:17:15.312Z,33.90
2018-05-31T12:19:42.871Z,32.70
2018-05-31T12:22:10.411Z,34.00
2018-05-31T12:24:37.970Z,36.60
2018-05-31T12:27:05.534Z,33.80
2018-05-31T12:29:33.079Z,32.30
2018-05-31T12:32:00.611Z,33.20
2018-05-31T12:34:28.160Z,34.00
2018-05-31T12:36:55.694Z,35.00
2018-05-31T12:39:24.017Z,31.80
2018-05-31T12:41:51.554Z,32.30
2018-05-31T12:44:19.882Z,33.40
2018-05-31T12:46:47.487Z,33.40
2018-05-31T12:49:15.013Z,35.60
2018-05-31T12:51:42.541Z,33.00
2018-05-31T12:54:10.119Z,32.50
2018-05-31T12:56:37.683Z,31.00
2018-05-31T12:59:05.233Z,33.40
2018-05-31T13:01:32.790Z,32.70
2018-05-31T13:04:01.142Z,31.50
2018-05-31T13:06:28.698Z,31.50
2018-05-31T13:08:56.292Z,33.00
2018-05-31T13:11:24.613Z,33.40
2018-05-31T13:13:52.150Z,33.40
2018-05-31T13:16:19.721Z,34.20
2018-05-31T13:18:47.306Z,32.70
2018-05-31T13:21:14.854Z,33.00
2018-05-31T13:23:42.423Z,34.20
2018-05-31T13:26:09.973Z,32.60
2018-05-31T13:28:37.559Z,31.00
2018-05-31T13:31:05.103Z,33.40
2018-05-31T13:33:32.663Z,34.70
2018-05-31T13:36:00.230Z,33.10
2018-05-31T13:38:27.789Z,31.90
2018-05-31T13:40:56.114Z,32.70
2018-05-31T13:43:23.674Z,32.70
2018-05-31T13:45:51.225Z,32.80
2018-05-31T13:48:18.763Z,31.00
2018-05-31T13:50:47.090Z,32.50
2018-05-31T13:53:14.658Z,32.50
2018-05-31T13:55:42.203Z,32.60
2018-05-31T13:58:09.747Z,31.60
2018-05-31T14:00:37.283Z,32.30
2018-05-31T14:03:04.842Z,33.70
2018-05-31T14:05:32.373Z,32.70
2018-05-31T14:07:59.905Z,31.10
2018-05-31T14:10:27.479Z,31.80
2018-05-31T14:12:55.047Z,31.20
2018-05-31T14:15:22.586Z,34.30
2018-05-31T14:17:50.147Z,32.80
2018-05-31T14:20:17.738Z,31.50
2018-05-31T14:22:45.275Z,33.00
2018-05-31T14:25:13.597Z,32.20
2018-05-31T14:27:41.134Z,32.30
2018-05-31T14:30:08.670Z,32.40
2018-05-31T14:32:36.267Z,34.50
2018-05-31T14:35:03.835Z,32.90
2018-05-31T14:37:31.438Z,32.00
2018-05-31T14:39:58.966Z,31.50
2018-05-31T14:42:26.526Z,32.00
2018-05-31T14:44:54.079Z,31.40
2018-05-31T14:47:21.643Z,33.00
2018-05-31T14:49:49.214Z,32.60
2018-05-31T14:52:16.792Z,31.70
2018-05-31T14:54:44.355Z,32.30
2018-05-31T14:57:11.908Z,33.40
2018-05-31T14:59:39.445Z,32.60
2018-05-31T15:02:07.828Z,32.00
2018-05-31T15:04:36.155Z,32.80
2018-05-31T15:07:03.694Z,32.70
2018-05-31T15:09:32.189Z,33.50
2018-05-31T15:11:59.736Z,32.60
2018-05-31T15:14:27.304Z,31.80
2018-05-31T15:16:55.968Z,32.80
2018-05-31T15:19:23.642Z,34.00
2018-05-31T15:21:51.965Z,34.90
2018-05-31T15:24:19.521Z,34.90
2018-05-31T15:26:47.290Z,34.20
2018-05-31T15:29:14.850Z,33.40
2018-05-31T15:31:42.401Z,33.00
2018-05-31T15:34:09.966Z,32.80
2018-05-31T15:36:37.496Z,32.40
2018-05-31T15:39:05.785Z,33.40
2018-05-31T15:41:33.350Z,32.20
2018-05-31T15:44:01.688Z,34.50
2018-05-31T15:46:29.251Z,34.50
2018-05-31T15:48:56.819Z,34.10
2018-05-31T15:51:24.369Z,33.70
2018-05-31T15:53:51.947Z,32.20
2018-05-31T15:56:20.201Z,33.90
2018-05-31T15:58:47.756Z,33.70
2018-05-31T16:01:15.384Z,34.50
2018-05-31T16:03:42.974Z,35.10
2018-05-31T16:06:11.280Z,35.30
2018-05-31T16:08:38.918Z,35.30
2018-05-31T16:11:06.445Z,34.70
2018-05-31T16:13:34.003Z,34.40
2018-05-31T16:16:01.580Z,34.80
2018-05-31T16:18:29.128Z,37.10
2018-05-31T16:20:56.661Z,35.40
2018-05-31T16:23:24.235Z,34.70
2018-05-31T16:25:51.789Z,34.40
2018-05-31T16:28:19.364Z,34.00
2018-05-31T16:30:46.912Z,36.50
2018-05-31T16:33:14.464Z,36.10
2018-05-31T16:35:42.770Z,38.70
2018-05-31T16:38:10.352Z,38.60
2018-05-31T16:40:37.968Z,37.70
2018-05-31T16:43:06.303Z,37.20
2018-05-31T16:45:33.852Z,37.20
2018-05-31T16:48:01.401Z,38.40
2018-05-31T16:50:28.967Z,38.30
2018-05-31T16:52:56.521Z,39.30
2018-05-31T16:55:24.831Z,39.40
2018-05-31T16:57:52.366Z,39.50
2018-05-31T17:00:20.668Z,40.20
2018-05-31T17:02:48.214Z,40.30
2018-05-31T17:05:16.538Z,39.90
2018-05-31T17:07:44.101Z,39.80
2018-05-31T17:10:11.633Z,39.40
2018-05-31T17:12:39.173Z,40.00
2018-05-31T17:15:07.465Z,40.70
2018-05-31T17:17:35.784Z,40.70
2018-05-31T17:20:03.326Z,40.60
2018-05-31T17:22:30.877Z,40.10
2018-05-31T17:24:58.434Z,41.10
2018-05-31T17:27:26.753Z,41.50
2018-05-31T17:29:54.281Z,41.50
2018-05-31T17:32:22.591Z,41.50
2018-05-31T17:34:50.154Z,41.50
2018-05-31T17:37:17.709Z,41.40
2018-05-31T17:39:45.896Z,42.30
2018-05-31T17:42:13.504Z,43.20
2018-05-31T17:44:41.042Z,43.30
2018-05-31T17:47:08.610Z,43.40
2018-05-31T17:49:36.153Z,44.20
2018-05-31T17:52:03.708Z,45.00
2018-05-31T17:54:31.247Z,45.60
2018-05-31T17:56:59.545Z,46.30
2018-05-31T17:59:27.119Z,46.30
2018-05-31T18:01:54.663Z,46.70
2018-05-31T18:04:22.976Z,47.80
2018-05-31T18:06:50.538Z,47.80
2018-05-31T18:09:18.084Z,47.90
2018-05-31T18:11:45.613Z,49.00
2018-05-31T18:14:13.151Z,50.00
2018-05-31T18:16:40.690Z,49.70
2018-05-31T18:19:08.235Z,50.10
2018-05-31T18:21:35.806Z,51.10
2018-05-31T18:24:03.383Z,51.30
2018-05-31T18:26:30.949Z,51.30
2018-05-31T18:28:58.499Z,52.10
2018-05-31T18:31:26.036Z,52.50
2018-05-31T18:33:54.370Z,53.60
2018-05-31T18:36:21.926Z,53.60
2018-05-31T18:38:49.471Z,53.80
2018-05-31T18:41:17.030Z,54.10
2018-05-31T18:43:44.599Z,54.70
2018-05-31T18:46:12.176Z,55.00
2018-05-31T18:48:39.747Z,55.60
2018-05-31T18:51:07.298Z,55.70
2018-05-31T18:53:34.859Z,55.70
2018-05-31T18:56:02.403Z,55.80
2018-05-31T18:58:30.727Z,56.20
2018-05-31T19:00:58.285Z,56.20
2018-05-31T19:03:25.839Z,55.80
2018-05-31T19:05:53.386Z,56.40
2018-05-31T19:08:20.926Z,57.20
2018-05-31T19:10:49.242Z,58.40
2018-05-31T19:13:22.394Z,58.30
2018-05-31T19:15:49.962Z,58.90
2018-05-31T19:18:23.278Z,59.20
2018-05-31T19:20:51.614Z,59.60
2018-05-31T19:23:19.183Z,59.60
2018-05-31T19:25:46.731Z,59.80
2018-05-31T19:28:14.276Z,59.70
2018-05-31T19:30:47.441Z,60.00
2018-05-31T19:33:15.755Z,60.30
2018-05-31T19:35:48.941Z,60.20
2018-05-31T19:38:16.483Z,60.00
2018-05-31T19:40:44.831Z,61.10
2018-05-31T19:46:19.270Z,61.20
2018-05-31T19:48:47.611Z,61.80
2018-05-31T19:51:20.781Z,61.80
2018-05-31T19:53:48.382Z,62.00
2018-05-31T19:56:15.926Z,62.10
2018-05-31T19:58:49.170Z,62.60
2018-05-31T20:01:22.290Z,62.90
2018-05-31T20:03:49.864Z,63.20
2018-05-31T20:06:17.469Z,63.60
2018-05-31T20:08:45.034Z,64.10
2018-05-31T20:11:12.610Z,64.60
2018-05-31T20:13:40.183Z,64.60
2018-05-31T20:16:08.538Z,65.50
2018-05-31T20:18:36.078Z,65.50
2018-05-31T20:21:03.609Z,65.70
2018-05-31T20:23:31.200Z,65.80
2018-05-31T20:25:58.743Z,66.40
2018-05-31T20:28:26.283Z,66.90
2018-05-31T20:30:53.866Z,67.30
2018-05-31T20:33:21.367Z,67.30
2018-05-31T20:35:48.919Z,67.00
2018-05-31T20:38:16.501Z,67.10
2018-05-31T20:40:44.054Z,67.60
2018-05-31T20:43:11.605Z,67.80
2018-05-31T20:45:39.182Z,67.80
2018-05-31T20:48:06.731Z,67.90
2018-05-31T20:50:34.275Z,68.10
2018-05-31T20:53:02.613Z,68.80
2018-05-31T20:55:30.160Z,68.80
2018-05-31T20:57:57.726Z,69.10
2018-05-31T21:00:25.270Z,69.50
2018-05-31T21:02:52.824Z,70.20
2018-05-31T21:05:20.359Z,70.20
2018-05-31T21:07:47.914Z,70.50
2018-05-31T21:10:15.532Z,70.60
2018-05-31T21:12:43.064Z,70.80
2018-05-31T21:15:11.369Z,71.40
2018-05-31T21:17:38.921Z,71.40
2018-05-31T21:20:06.519Z,71.60
2018-05-31T21:22:34.035Z,71.80
2018-05-31T21:25:02.370Z,72.00
2018-05-31T21:27:29.951Z,72.00
2018-05-31T21:29:57.497Z,71.60
2018-05-31T21:32:25.037Z,71.40
2018-05-31T21:34:52.642Z,71.70
2018-05-31T21:37:20.189Z,72.10
2018-05-31T21:39:47.754Z,72.20
2018-05-31T21:42:15.316Z,72.80
2018-05-31T21:44:42.864Z,71.80
2018-05-31T21:47:10.471Z,71.60
2018-05-31T21:49:38.027Z,71.70
2018-05-31T21:52:05.604Z,72.00
2018-05-31T21:54:33.175Z,72.30
2018-05-31T21:57:00.742Z,72.30
2018-05-31T21:59:29.070Z,72.70
2018-05-31T22:01:56.618Z,72.70
2018-05-31T22:04:24.191Z,72.50
2018-05-31T22:06:51.743Z,72.70
2018-05-31T22:09:19.294Z,72.60
2018-05-31T22:11:47.603Z,72.50
2018-05-31T22:14:15.170Z,72.50
2018-05-31T22:16:42.739Z,72.40
2018-05-31T22:19:10.350Z,72.50
2018-05-31T22:21:37.898Z,72.80
2018-05-31T22:24:05.464Z,72.90
2018-05-31T22:26:33.031Z,73.00
2018-05-31T22:29:00.587Z,72.20
2018-05-31T22:31:28.130Z,72.20
2018-05-31T22:33:55.695Z,72.10
2018-05-31T22:36:23.262Z,72.00
2018-05-31T22:38:50.827Z,72.40
2018-05-31T22:41:18.365Z,72.00
2018-05-31T22:43:45.919Z,72.00
2018-05-31T22:46:13.468Z,72.10
2018-05-31T22:48:41.803Z,72.30
2018-05-31T22:51:09.345Z,72.30
2018-05-31T22:53:36.910Z,72.70
2018-05-31T22:56:04.479Z,72.80
2018-05-31T22:58:32.013Z,72.70
2018-05-31T23:01:00.347Z,73.00
2018-05-31T23:03:27.899Z,73.00
2018-05-31T23:05:55.451Z,72.90
2018-05-31T23:08:23.018Z,72.90
2018-05-31T23:10:50.593Z,72.70
2018-05-31T23:13:18.205Z,72.70
2018-05-31T23:15:46.516Z,73.10
2018-05-31T23:18:14.081Z,73.00
2018-05-31T23:20:41.648Z,73.10
2018-05-31T23:23:09.211Z,73.20
2018-05-31T23:25:36.754Z,73.40
2018-05-31T23:28:05.070Z,73.20
2018-05-31T23:30:32.618Z,73.20
2018-05-31T23:33:00.178Z,72.30
2018-05-31T23:35:27.729Z,72.80
2018-05-31T23:37:55.282Z,72.80
2018-05-31T23:40:23.604Z,73.00
2018-05-31T23:42:51.141Z,72.90
2018-05-31T23:45:18.711Z,72.60
2018-05-31T23:47:46.286Z,73.00
2018-05-31T23:50:13.885Z,71.00
2018-05-31T23:52:41.455Z,72.10
2018-05-31T23:55:08.999Z,72.50
2018-05-31T23:57:36.552Z,72.50
